Terminal Aerodrome Forecast
Issued by NWS Corpus Christi, TX

Home | Current Version | Previous Version | Text Only | Print | Product List | Glossary On
Versions: 1 2 3 4 5 6 7 8 9 10 11 12 13 14
977
FTUS44 KCRP 231329 AAA
TAFCRP
TAF AMD
KCRP 231329Z 2313/2412 15010KT P6SM SCT018 SCT250
     FM231500 16017G25KT P6SM SCT025
     FM231700 15025G32KT P6SM SCT035
     FM232000 14028G35KT P6SM FEW035 SCT250
     FM240100 15018G25KT P6SM FEW020 SCT250
     FM240600 16017G24KT P6SM SCT015 BKN025=

USA.gov is the U.S. government's official web portal to all federal, state and local government web resources and services.